sensor_id;sensor_type;location;lat;lon;timestamp;pressure;altitude;pressure_sealevel;temperature;humidity
19108;BME280;9686;48.832;9.126;2023-06-14T00:01:13;97651.72;;;17.04;nan
19108;BME280;9686;48.832;9.126;2023-06-14T00:03:39;97643.69;;;17.07;nan
19108;BME280;9686;48.832;9.126;2023-06-14T00:06:04;97644.22;;;17.15;nan
19108;BME280;9686;48.832;9.126;2023-06-14T00:08:30;97649.63;;;17.12;nan
19108;BME280;9686;48.832;9.126;2023-06-14T00:10:55;97644.28;;;17.14;nan
19108;BME280;9686;48.832;9.126;2023-06-14T00:13:20;97649.97;;;17.25;nan
19108;BME280;9686;48.832;9.126;2023-06-14T00:15:46;97652.69;;;17.23;nan
19108;BME280;9686;48.832;9.126;2023-06-14T00:18:12;97650.28;;;17.17;nan
19108;BME280;9686;48.832;9.126;2023-06-14T00:20:38;97660.41;;;17.06;nan
19108;BME280;9686;48.832;9.126;2023-06-14T00:23:04;97653.22;;;17.10;nan
19108;BME280;9686;48.832;9.126;2023-06-14T00:25:30;97660.66;;;17.00;nan
19108;BME280;9686;48.832;9.126;2023-06-14T00:27:56;97657.78;;;16.84;nan
19108;BME280;9686;48.832;9.126;2023-06-14T00:30:21;97666.25;;;16.92;nan
19108;BME280;9686;48.832;9.126;2023-06-14T00:32:47;97669.22;;;16.83;nan
19108;BME280;9686;48.832;9.126;2023-06-14T00:35:13;97660.47;;;16.83;nan
19108;BME280;9686;48.832;9.126;2023-06-14T00:37:38;97664.97;;;16.57;nan
19108;BME280;9686;48.832;9.126;2023-06-14T00:40:04;97655.03;;;16.42;nan
19108;BME280;9686;48.832;9.126;2023-06-14T00:42:30;97651.38;;;16.23;nan
19108;BME280;9686;48.832;9.126;2023-06-14T00:44:55;97653.16;;;16.22;nan
19108;BME280;9686;48.832;9.126;2023-06-14T00:47:21;97652.19;;;16.01;nan
19108;BME280;9686;48.832;9.126;2023-06-14T00:49:47;97655.22;;;16.14;nan
19108;BME280;9686;48.832;9.126;2023-06-14T00:52:14;97651.88;;;16.09;nan
19108;BME280;9686;48.832;9.126;2023-06-14T00:54:40;97643.91;;;15.87;nan
19108;BME280;9686;48.832;9.126;2023-06-14T00:57:12;97647.25;;;15.92;nan
19108;BME280;9686;48.832;9.126;2023-06-14T00:59:45;97643.66;;;15.95;nan
19108;BME280;9686;48.832;9.126;2023-06-14T01:02:11;97650.34;;;16.03;nan
19108;BME280;9686;48.832;9.126;2023-06-14T01:04:37;97656.50;;;16.02;nan
19108;BME280;9686;48.832;9.126;2023-06-14T01:10:12;97660.28;;;15.95;nan
19108;BME280;9686;48.832;9.126;2023-06-14T01:12:52;97659.09;;;16.04;nan
19108;BME280;9686;48.832;9.126;2023-06-14T01:15:20;97661.47;;;15.87;nan
19108;BME280;9686;48.832;9.126;2023-06-14T01:17:49;97663.28;;;15.85;nan
19108;BME280;9686;48.832;9.126;2023-06-14T01:20:17;97664.94;;;15.87;nan
19108;BME280;9686;48.832;9.126;2023-06-14T01:22:54;97673.44;;;15.70;nan
19108;BME280;9686;48.832;9.126;2023-06-14T01:25:20;97667.00;;;15.79;nan
19108;BME280;9686;48.832;9.126;2023-06-14T01:27:50;97665.13;;;15.83;nan
19108;BME280;9686;48.832;9.126;2023-06-14T01:30:17;97669.00;;;15.72;nan
19108;BME280;9686;48.832;9.126;2023-06-14T01:32:43;97674.41;;;15.68;nan
19108;BME280;9686;48.832;9.126;2023-06-14T01:35:09;97668.41;;;15.64;nan
19108;BME280;9686;48.832;9.126;2023-06-14T01:37:35;97670.59;;;15.77;nan
19108;BME280;9686;48.832;9.126;2023-06-14T01:40:03;97670.94;;;15.67;nan
19108;BME280;9686;48.832;9.126;2023-06-14T01:42:29;97661.28;;;15.68;nan
19108;BME280;9686;48.832;9.126;2023-06-14T01:44:56;97666.16;;;15.52;nan
19108;BME280;9686;48.832;9.126;2023-06-14T01:47:21;97669.13;;;15.43;nan
19108;BME280;9686;48.832;9.126;2023-06-14T01:49:47;97668.66;;;15.30;nan
19108;BME280;9686;48.832;9.126;2023-06-14T01:52:12;97665.63;;;15.42;nan
19108;BME280;9686;48.832;9.126;2023-06-14T01:54:38;97667.47;;;15.40;nan
19108;BME280;9686;48.832;9.126;2023-06-14T01:57:08;97668.75;;;15.54;nan
19108;BME280;9686;48.832;9.126;2023-06-14T01:59:33;97665.53;;;15.46;nan
19108;BME280;9686;48.832;9.126;2023-06-14T02:02:00;97668.97;;;15.48;nan
19108;BME280;9686;48.832;9.126;2023-06-14T02:04:25;97669.19;;;15.41;nan
19108;BME280;9686;48.832;9.126;2023-06-14T02:06:50;97672.81;;;15.37;nan
19108;BME280;9686;48.832;9.126;2023-06-14T02:09:16;97664.22;;;15.32;nan
19108;BME280;9686;48.832;9.126;2023-06-14T02:11:41;97672.72;;;15.40;nan
19108;BME280;9686;48.832;9.126;2023-06-14T02:14:06;97669.28;;;15.38;nan
19108;BME280;9686;48.832;9.126;2023-06-14T02:16:32;97670.13;;;15.39;nan
19108;BME280;9686;48.832;9.126;2023-06-14T02:18:57;97672.03;;;15.34;nan
19108;BME280;9686;48.832;9.126;2023-06-14T02:21:23;97677.44;;;15.29;nan
19108;BME280;9686;48.832;9.126;2023-06-14T02:23:48;97675.84;;;15.25;nan
19108;BME280;9686;48.832;9.126;2023-06-14T02:26:13;97670.81;;;15.19;nan
19108;BME280;9686;48.832;9.126;2023-06-14T02:28:39;97674.59;;;15.10;nan
19108;BME280;9686;48.832;9.126;2023-06-14T02:31:04;97665.00;;;15.09;nan
19108;BME280;9686;48.832;9.126;2023-06-14T02:33:29;97665.72;;;15.15;nan
19108;BME280;9686;48.832;9.126;2023-06-14T02:35:54;97666.66;;;15.12;nan
19108;BME280;9686;48.832;9.126;2023-06-14T02:38:21;97667.66;;;15.08;nan
19108;BME280;9686;48.832;9.126;2023-06-14T02:40:46;97670.53;;;15.00;nan
19108;BME280;9686;48.832;9.126;2023-06-14T02:43:12;97674.94;;;15.00;nan
19108;BME280;9686;48.832;9.126;2023-06-14T02:45:37;97676.25;;;14.87;nan
19108;BME280;9686;48.832;9.126;2023-06-14T02:48:02;97667.47;;;14.88;nan
19108;BME280;9686;48.832;9.126;2023-06-14T02:50:28;97676.16;;;14.90;nan
19108;BME280;9686;48.832;9.126;2023-06-14T02:52:55;97673.16;;;15.00;nan
19108;BME280;9686;48.832;9.126;2023-06-14T02:55:22;97674.59;;;14.82;nan
19108;BME280;9686;48.832;9.126;2023-06-14T02:57:47;97676.84;;;14.67;nan
19108;BME280;9686;48.832;9.126;2023-06-14T03:00:13;97682.63;;;14.78;nan
19108;BME280;9686;48.832;9.126;2023-06-14T03:02:39;97679.84;;;14.82;nan
19108;BME280;9686;48.832;9.126;2023-06-14T03:05:04;97676.59;;;14.74;nan
19108;BME280;9686;48.832;9.126;2023-06-14T03:07:31;97669.13;;;14.90;nan
19108;BME280;9686;48.832;9.126;2023-06-14T03:09:57;97679.28;;;14.73;nan
19108;BME280;9686;48.832;9.126;2023-06-14T03:12:23;97677.19;;;14.84;nan
19108;BME280;9686;48.832;9.126;2023-06-14T03:14:49;97678.06;;;14.85;nan
19108;BME280;9686;48.832;9.126;2023-06-14T03:17:16;97684.81;;;14.92;nan
19108;BME280;9686;48.832;9.126;2023-06-14T03:19:42;97683.44;;;14.80;nan
19108;BME280;9686;48.832;9.126;2023-06-14T03:22:07;97679.81;;;14.84;nan
19108;BME280;9686;48.832;9.126;2023-06-14T03:24:33;97689.06;;;14.68;nan
19108;BME280;9686;48.832;9.126;2023-06-14T03:27:02;97678.81;;;14.60;nan
19108;BME280;9686;48.832;9.126;2023-06-14T03:29:27;97688.94;;;14.43;nan
19108;BME280;9686;48.832;9.126;2023-06-14T03:32:01;97690.72;;;14.41;nan
19108;BME280;9686;48.832;9.126;2023-06-14T03:34:27;97693.53;;;14.35;nan
19108;BME280;9686;48.832;9.126;2023-06-14T03:36:53;97705.59;;;14.40;nan
19108;BME280;9686;48.832;9.126;2023-06-14T03:39:18;97694.09;;;14.46;nan
19108;BME280;9686;48.832;9.126;2023-06-14T03:41:44;97703.69;;;14.47;nan
19108;BME280;9686;48.832;9.126;2023-06-14T03:44:09;97702.00;;;14.44;nan
19108;BME280;9686;48.832;9.126;2023-06-14T03:46:34;97707.78;;;14.25;nan
19108;BME280;9686;48.832;9.126;2023-06-14T03:49:00;97710.47;;;14.54;nan
19108;BME280;9686;48.832;9.126;2023-06-14T03:51:27;97715.66;;;14.56;nan
19108;BME280;9686;48.832;9.126;2023-06-14T03:53:53;97717.91;;;14.38;nan
19108;BME280;9686;48.832;9.126;2023-06-14T03:56:19;97715.66;;;14.56;nan
19108;BME280;9686;48.832;9.126;2023-06-14T03:58:44;97720.31;;;14.46;nan
19108;BME280;9686;48.832;9.126;2023-06-14T04:01:09;97723.91;;;14.43;nan
19108;BME280;9686;48.832;9.126;2023-06-14T04:03:37;97727.72;;;14.30;nan
19108;BME280;9686;48.832;9.126;2023-06-14T04:06:04;97723.84;;;14.45;nan
19108;BME280;9686;48.832;9.126;2023-06-14T04:08:30;97727.88;;;14.57;nan
19108;BME280;9686;48.832;9.126;2023-06-14T04:10:56;97726.00;;;14.62;nan
19108;BME280;9686;48.832;9.126;2023-06-14T04:13:21;97732.50;;;14.48;nan
19108;BME280;9686;48.832;9.126;2023-06-14T04:15:46;97732.63;;;14.73;nan
19108;BME280;9686;48.832;9.126;2023-06-14T04:18:12;97734.03;;;14.85;nan
19108;BME280;9686;48.832;9.126;2023-06-14T04:20:38;97738.22;;;14.91;nan
19108;BME280;9686;48.832;9.126;2023-06-14T04:23:14;97732.81;;;14.95;nan
19108;BME280;9686;48.832;9.126;2023-06-14T04:25:40;97747.47;;;15.02;nan
19108;BME280;9686;48.832;9.126;2023-06-14T04:28:06;97740.22;;;15.10;nan
19108;BME280;9686;48.832;9.126;2023-06-14T04:30:34;97742.88;;;15.09;nan
19108;BME280;9686;48.832;9.126;2023-06-14T04:33:00;97747.25;;;15.10;nan
19108;BME280;9686;48.832;9.126;2023-06-14T04:35:25;97748.56;;;15.23;nan
19108;BME280;9686;48.832;9.126;2023-06-14T04:37:52;97742.41;;;15.24;nan
19108;BME280;9686;48.832;9.126;2023-06-14T04:40:18;97739.97;;;15.18;nan
19108;BME280;9686;48.832;9.126;2023-06-14T04:42:43;97742.41;;;15.24;nan
19108;BME280;9686;48.832;9.126;2023-06-14T04:45:10;97749.25;;;15.28;nan
19108;BME280;9686;48.832;9.126;2023-06-14T04:47:36;97756.13;;;15.32;nan
19108;BME280;9686;48.832;9.126;2023-06-14T04:50:02;97750.28;;;15.24;nan
19108;BME280;9686;48.832;9.126;2023-06-14T04:52:28;97758.25;;;15.21;nan
19108;BME280;9686;48.832;9.126;2023-06-14T04:54:54;97764.06;;;15.31;nan
19108;BME280;9686;48.832;9.126;2023-06-14T04:57:20;97766.63;;;15.32;nan
19108;BME280;9686;48.832;9.126;2023-06-14T04:59:47;97766.19;;;15.46;nan
19108;BME280;9686;48.832;9.126;2023-06-14T05:02:13;97768.44;;;15.58;nan
19108;BME280;9686;48.832;9.126;2023-06-14T05:04:39;97775.53;;;15.55;nan
19108;BME280;9686;48.832;9.126;2023-06-14T05:07:07;97777.19;;;15.59;nan
19108;BME280;9686;48.832;9.126;2023-06-14T05:09:33;97785.00;;;15.60;nan
19108;BME280;9686;48.832;9.126;2023-06-14T05:11:58;97778.91;;;15.60;nan
19108;BME280;9686;48.832;9.126;2023-06-14T05:14:25;97773.47;;;15.66;nan
19108;BME280;9686;48.832;9.126;2023-06-14T05:16:50;97784.09;;;16.13;nan
19108;BME280;9686;48.832;9.126;2023-06-14T05:19:16;97776.38;;;16.33;nan
19108;BME280;9686;48.832;9.126;2023-06-14T05:21:43;97771.22;;;16.30;nan
19108;BME280;9686;48.832;9.126;2023-06-14T05:24:08;97784.09;;;16.38;nan
19108;BME280;9686;48.832;9.126;2023-06-14T05:26:34;97766.84;;;16.54;nan
19108;BME280;9686;48.832;9.126;2023-06-14T05:29:00;97775.31;;;16.62;nan
19108;BME280;9686;48.832;9.126;2023-06-14T05:31:26;97776.84;;;16.69;nan
19108;BME280;9686;48.832;9.126;2023-06-14T05:33:52;97778.56;;;16.70;nan
19108;BME280;9686;48.832;9.126;2023-06-14T05:36:18;97781.44;;;16.86;nan
19108;BME280;9686;48.832;9.126;2023-06-14T05:38:44;97785.97;;;17.06;nan
19108;BME280;9686;48.832;9.126;2023-06-14T05:41:10;97784.63;;;16.95;nan
19108;BME280;9686;48.832;9.126;2023-06-14T05:43:35;97785.59;;;16.93;nan
19108;BME280;9686;48.832;9.126;2023-06-14T05:46:00;97788.97;;;16.97;nan
19108;BME280;9686;48.832;9.126;2023-06-14T05:48:26;97791.22;;;17.06;nan
19108;BME280;9686;48.832;9.126;2023-06-14T05:50:51;97779.13;;;17.23;nan
19108;BME280;9686;48.832;9.126;2023-06-14T05:53:16;97780.91;;;17.45;nan
19108;BME280;9686;48.832;9.126;2023-06-14T05:55:41;97778.41;;;17.62;nan
19108;BME280;9686;48.832;9.126;2023-06-14T05:58:07;97774.19;;;17.58;nan
19108;BME280;9686;48.832;9.126;2023-06-14T06:00:32;97786.84;;;17.50;nan
19108;BME280;9686;48.832;9.126;2023-06-14T06:02:58;97791.06;;;17.54;nan
19108;BME280;9686;48.832;9.126;2023-06-14T06:05:24;97779.47;;;17.58;nan
19108;BME280;9686;48.832;9.126;2023-06-14T06:07:49;97780.94;;;17.65;nan
19108;BME280;9686;48.832;9.126;2023-06-14T06:10:15;97783.44;;;17.70;nan
19108;BME280;9686;48.832;9.126;2023-06-14T06:12:41;97787.78;;;17.91;nan
19108;BME280;9686;48.832;9.126;2023-06-14T06:15:07;97787.19;;;17.84;nan
19108;BME280;9686;48.832;9.126;2023-06-14T06:17:32;97791.22;;;17.93;nan
19108;BME280;9686;48.832;9.126;2023-06-14T06:19:58;97794.72;;;18.14;nan
19108;BME280;9686;48.832;9.126;2023-06-14T06:22:23;97797.97;;;18.00;nan
19108;BME280;9686;48.832;9.126;2023-06-14T06:24:48;97797.09;;;18.20;nan
19108;BME280;9686;48.832;9.126;2023-06-14T06:27:14;97803.13;;;18.24;nan
19108;BME280;9686;48.832;9.126;2023-06-14T06:29:42;97796.91;;;18.25;nan
19108;BME280;9686;48.832;9.126;2023-06-14T06:32:07;97799.00;;;18.37;nan
19108;BME280;9686;48.832;9.126;2023-06-14T06:34:33;97797.81;;;18.44;nan
19108;BME280;9686;48.832;9.126;2023-06-14T06:36:58;97798.53;;;18.47;nan
19108;BME280;9686;48.832;9.126;2023-06-14T06:39:23;97796.66;;;18.70;nan
19108;BME280;9686;48.832;9.126;2023-06-14T06:41:48;97797.53;;;18.70;nan
19108;BME280;9686;48.832;9.126;2023-06-14T06:44:14;97800.03;;;18.73;nan
19108;BME280;9686;48.832;9.126;2023-06-14T06:46:39;97795.34;;;18.80;nan
19108;BME280;9686;48.832;9.126;2023-06-14T06:49:06;97804.19;;;18.98;nan
19108;BME280;9686;48.832;9.126;2023-06-14T06:51:32;97807.91;;;18.94;nan
19108;BME280;9686;48.832;9.126;2023-06-14T06:53:58;97817.91;;;19.06;nan
19108;BME280;9686;48.832;9.126;2023-06-14T06:56:23;97816.78;;;19.12;nan
19108;BME280;9686;48.832;9.126;2023-06-14T06:58:50;97814.34;;;19.26;nan
19108;BME280;9686;48.832;9.126;2023-06-14T07:01:15;97823.31;;;19.40;nan
19108;BME280;9686;48.832;9.126;2023-06-14T07:03:41;97820.84;;;19.37;nan
19108;BME280;9686;48.832;9.126;2023-06-14T07:06:06;97827.03;;;19.36;nan
19108;BME280;9686;48.832;9.126;2023-06-14T07:08:32;97827.59;;;19.43;nan
19108;BME280;9686;48.832;9.126;2023-06-14T07:10:57;97833.91;;;19.40;nan
19108;BME280;9686;48.832;9.126;2023-06-14T07:13:22;97835.75;;;19.38;nan
19108;BME280;9686;48.832;9.126;2023-06-14T07:15:47;97837.19;;;19.64;nan
19108;BME280;9686;48.832;9.126;2023-06-14T07:18:13;97831.81;;;19.66;nan
19108;BME280;9686;48.832;9.126;2023-06-14T07:20:38;97832.28;;;19.74;nan
19108;BME280;9686;48.832;9.126;2023-06-14T07:23:04;97836.84;;;19.89;nan
19108;BME280;9686;48.832;9.126;2023-06-14T07:25:30;97837.38;;;19.96;nan
19108;BME280;9686;48.832;9.126;2023-06-14T07:27:55;97842.69;;;19.96;nan
19108;BME280;9686;48.832;9.126;2023-06-14T07:30:21;97844.94;;;19.86;nan
19108;BME280;9686;48.832;9.126;2023-06-14T07:32:51;97844.00;;;19.87;nan
19108;BME280;9686;48.832;9.126;2023-06-14T07:35:16;97843.53;;;19.96;nan
19108;BME280;9686;48.832;9.126;2023-06-14T07:37:41;97856.00;;;19.94;nan
19108;BME280;9686;48.832;9.126;2023-06-14T07:40:07;97849.31;;;20.05;nan
19108;BME280;9686;48.832;9.126;2023-06-14T07:42:36;97857.16;;;20.42;nan
19108;BME280;9686;48.832;9.126;2023-06-14T07:45:05;97853.38;;;20.63;nan
19108;BME280;9686;48.832;9.126;2023-06-14T07:47:31;97858.09;;;20.74;nan
19108;BME280;9686;48.832;9.126;2023-06-14T07:49:56;97861.22;;;20.82;nan
19108;BME280;9686;48.832;9.126;2023-06-14T07:52:22;97858.28;;;20.71;nan
19108;BME280;9686;48.832;9.126;2023-06-14T07:54:47;97856.84;;;20.81;nan
19108;BME280;9686;48.832;9.126;2023-06-14T07:57:12;97861.69;;;20.90;nan
19108;BME280;9686;48.832;9.126;2023-06-14T07:59:38;97852.97;;;21.04;nan
19108;BME280;9686;48.832;9.126;2023-06-14T08:02:03;97853.25;;;21.15;nan
19108;BME280;9686;48.832;9.126;2023-06-14T08:04:29;97851.50;;;20.99;nan
19108;BME280;9686;48.832;9.126;2023-06-14T08:06:54;97849.94;;;21.12;nan
19108;BME280;9686;48.832;9.126;2023-06-14T08:09:19;97846.66;;;21.40;nan
19108;BME280;9686;48.832;9.126;2023-06-14T08:11:45;97847.25;;;21.61;nan
19108;BME280;9686;48.832;9.126;2023-06-14T08:14:10;97845.59;;;21.58;nan
19108;BME280;9686;48.832;9.126;2023-06-14T08:16:36;97847.00;;;21.65;nan
19108;BME280;9686;48.832;9.126;2023-06-14T08:19:02;97847.56;;;21.54;nan
19108;BME280;9686;48.832;9.126;2023-06-14T08:21:27;97851.44;;;21.65;nan
19108;BME280;9686;48.832;9.126;2023-06-14T08:23:54;97849.19;;;21.73;nan
19108;BME280;9686;48.832;9.126;2023-06-14T08:26:20;97858.59;;;21.78;nan
19108;BME280;9686;48.832;9.126;2023-06-14T08:28:45;97851.06;;;21.87;nan
19108;BME280;9686;48.832;9.126;2023-06-14T08:31:11;97853.69;;;22.18;nan
19108;BME280;9686;48.832;9.126;2023-06-14T08:33:36;97855.69;;;22.14;nan
19108;BME280;9686;48.832;9.126;2023-06-14T08:36:01;97857.13;;;22.04;nan
19108;BME280;9686;48.832;9.126;2023-06-14T08:38:27;97859.19;;;22.15;nan
19108;BME280;9686;48.832;9.126;2023-06-14T08:40:56;97861.75;;;22.01;nan
19108;BME280;9686;48.832;9.126;2023-06-14T08:43:22;97868.09;;;21.98;nan
19108;BME280;9686;48.832;9.126;2023-06-14T08:45:48;97860.59;;;22.51;nan
19108;BME280;9686;48.832;9.126;2023-06-14T08:48:19;97861.41;;;22.67;nan
19108;BME280;9686;48.832;9.126;2023-06-14T08:50:46;97863.22;;;22.81;nan
19108;BME280;9686;48.832;9.126;2023-06-14T08:53:14;97858.06;;;22.63;nan
19108;BME280;9686;48.832;9.126;2023-06-14T08:55:45;97867.44;;;22.55;nan
19108;BME280;9686;48.832;9.126;2023-06-14T08:58:11;97863.31;;;22.65;nan
19108;BME280;9686;48.832;9.126;2023-06-14T09:00:39;97859.03;;;22.76;nan
19108;BME280;9686;48.832;9.126;2023-06-14T09:03:07;97859.44;;;23.13;nan
19108;BME280;9686;48.832;9.126;2023-06-14T09:05:35;97859.75;;;23.08;nan
19108;BME280;9686;48.832;9.126;2023-06-14T09:08:01;97868.88;;;23.04;nan
19108;BME280;9686;48.832;9.126;2023-06-14T09:10:27;97866.56;;;23.13;nan
19108;BME280;9686;48.832;9.126;2023-06-14T09:12:52;97859.66;;;22.96;nan
19108;BME280;9686;48.832;9.126;2023-06-14T09:15:18;97862.22;;;22.97;nan
19108;BME280;9686;48.832;9.126;2023-06-14T09:17:43;97856.13;;;23.10;nan
19108;BME280;9686;48.832;9.126;2023-06-14T09:20:09;97862.47;;;23.35;nan
19108;BME280;9686;48.832;9.126;2023-06-14T09:22:36;97869.69;;;23.33;nan
19108;BME280;9686;48.832;9.126;2023-06-14T09:25:02;97863.88;;;23.55;nan
19108;BME280;9686;48.832;9.126;2023-06-14T09:27:30;97863.50;;;23.61;nan
19108;BME280;9686;48.832;9.126;2023-06-14T09:29:56;97859.56;;;23.81;nan
19108;BME280;9686;48.832;9.126;2023-06-14T09:32:22;97869.81;;;23.87;nan
19108;BME280;9686;48.832;9.126;2023-06-14T09:34:48;97862.22;;;23.81;nan
19108;BME280;9686;48.832;9.126;2023-06-14T09:37:26;97868.50;;;23.80;nan
19108;BME280;9686;48.832;9.126;2023-06-14T09:39:51;97868.31;;;23.83;nan
19108;BME280;9686;48.832;9.126;2023-06-14T09:42:18;97869.47;;;23.79;nan
19108;BME280;9686;48.832;9.126;2023-06-14T09:44:47;97873.72;;;24.09;nan
19108;BME280;9686;48.832;9.126;2023-06-14T09:47:13;97870.25;;;23.94;nan
19108;BME280;9686;48.832;9.126;2023-06-14T09:49:39;97869.78;;;24.02;nan
19108;BME280;9686;48.832;9.126;2023-06-14T09:52:06;97872.53;;;24.00;nan
19108;BME280;9686;48.832;9.126;2023-06-14T09:54:36;97865.53;;;24.12;nan
19108;BME280;9686;48.832;9.126;2023-06-14T09:57:04;97862.75;;;24.01;nan
19108;BME280;9686;48.832;9.126;2023-06-14T09:59:31;97869.38;;;24.08;nan
19108;BME280;9686;48.832;9.126;2023-06-14T10:01:58;97867.25;;;24.13;nan
19108;BME280;9686;48.832;9.126;2023-06-14T10:04:25;97862.38;;;23.92;nan
19108;BME280;9686;48.832;9.126;2023-06-14T10:06:52;97865.50;;;23.58;nan
19108;BME280;9686;48.832;9.126;2023-06-14T10:09:18;97863.97;;;23.68;nan
19108;BME280;9686;48.832;9.126;2023-06-14T10:11:45;97858.72;;;23.81;nan
19108;BME280;9686;48.832;9.126;2023-06-14T10:14:11;97856.00;;;24.22;nan
19108;BME280;9686;48.832;9.126;2023-06-14T10:19:29;97859.72;;;24.59;nan
19108;BME280;9686;48.832;9.126;2023-06-14T10:22:03;97863.69;;;24.79;nan
19108;BME280;9686;48.832;9.126;2023-06-14T10:24:33;97864.50;;;24.67;nan
19108;BME280;9686;48.832;9.126;2023-06-14T10:27:06;97855.31;;;24.45;nan
19108;BME280;9686;48.832;9.126;2023-06-14T10:32:26;97849.75;;;24.09;nan
19108;BME280;9686;48.832;9.126;2023-06-14T10:35:02;97847.72;;;23.99;nan
19108;BME280;9686;48.832;9.126;2023-06-14T10:37:29;97849.31;;;24.29;nan
19108;BME280;9686;48.832;9.126;2023-06-14T10:39:54;97832.94;;;24.60;nan
19108;BME280;9686;48.832;9.126;2023-06-14T10:42:20;97839.78;;;25.15;nan
19108;BME280;9686;48.832;9.126;2023-06-14T10:44:54;97836.63;;;25.47;nan
19108;BME280;9686;48.832;9.126;2023-06-14T10:47:36;97846.75;;;25.67;nan
19108;BME280;9686;48.832;9.126;2023-06-14T10:52:31;97850.97;;;25.33;nan
19108;BME280;9686;48.832;9.126;2023-06-14T10:55:10;97852.72;;;25.58;nan
19108;BME280;9686;48.832;9.126;2023-06-14T10:57:48;97855.84;;;25.39;nan
19108;BME280;9686;48.832;9.126;2023-06-14T11:00:18;97849.59;;;25.15;nan
19108;BME280;9686;48.832;9.126;2023-06-14T11:08:33;97858.13;;;25.33;nan
19108;BME280;9686;48.832;9.126;2023-06-14T11:11:08;97849.25;;;25.32;nan
19108;BME280;9686;48.832;9.126;2023-06-14T11:13:34;97846.03;;;25.40;nan
19108;BME280;9686;48.832;9.126;2023-06-14T11:16:01;97844.81;;;25.07;nan
19108;BME280;9686;48.832;9.126;2023-06-14T11:18:28;97840.78;;;25.02;nan
19108;BME280;9686;48.832;9.126;2023-06-14T11:20:53;97848.88;;;25.00;nan
19108;BME280;9686;48.832;9.126;2023-06-14T11:23:19;97850.31;;;24.91;nan
19108;BME280;9686;48.832;9.126;2023-06-14T11:25:50;97842.00;;;25.21;nan
19108;BME280;9686;48.832;9.126;2023-06-14T11:28:15;97843.63;;;25.61;nan
19108;BME280;9686;48.832;9.126;2023-06-14T11:30:40;97838.47;;;26.07;nan
19108;BME280;9686;48.832;9.126;2023-06-14T11:33:09;97831.28;;;26.31;nan
19108;BME280;9686;48.832;9.126;2023-06-14T11:35:35;97837.34;;;26.33;nan
19108;BME280;9686;48.832;9.126;2023-06-14T11:38:01;97847.72;;;26.14;nan
19108;BME280;9686;48.832;9.126;2023-06-14T11:40:27;97847.84;;;25.89;nan
19108;BME280;9686;48.832;9.126;2023-06-14T11:42:59;97834.47;;;26.12;nan
19108;BME280;9686;48.832;9.126;2023-06-14T11:45:26;97838.38;;;27.68;nan
19108;BME280;9686;48.832;9.126;2023-06-14T11:47:54;97843.47;;;29.09;nan
19108;BME280;9686;48.832;9.126;2023-06-14T11:50:21;97833.75;;;30.85;nan
19108;BME280;9686;48.832;9.126;2023-06-14T11:52:55;97838.34;;;32.21;nan
19108;BME280;9686;48.832;9.126;2023-06-14T11:55:21;97837.34;;;32.58;nan
19108;BME280;9686;48.832;9.126;2023-06-14T11:57:47;97837.94;;;33.39;nan
19108;BME280;9686;48.832;9.126;2023-06-14T12:00:13;97828.59;;;34.67;nan
19108;BME280;9686;48.832;9.126;2023-06-14T12:02:40;97831.44;;;34.33;nan
19108;BME280;9686;48.832;9.126;2023-06-14T12:05:06;97822.69;;;34.63;nan
19108;BME280;9686;48.832;9.126;2023-06-14T12:07:37;97824.81;;;35.17;nan
19108;BME280;9686;48.832;9.126;2023-06-14T12:10:08;97830.16;;;34.61;nan
19108;BME280;9686;48.832;9.126;2023-06-14T12:12:38;97836.03;;;34.73;nan
19108;BME280;9686;48.832;9.126;2023-06-14T12:15:05;97837.19;;;34.22;nan
19108;BME280;9686;48.832;9.126;2023-06-14T12:17:35;97836.78;;;33.24;nan
19108;BME280;9686;48.832;9.126;2023-06-14T12:20:06;97838.66;;;32.18;nan
19108;BME280;9686;48.832;9.126;2023-06-14T12:22:55;97847.59;;;30.99;nan
19108;BME280;9686;48.832;9.126;2023-06-14T12:25:28;97835.06;;;30.23;nan
19108;BME280;9686;48.832;9.126;2023-06-14T12:27:56;97834.69;;;29.37;nan
19108;BME280;9686;48.832;9.126;2023-06-14T12:30:21;97842.16;;;28.82;nan
19108;BME280;9686;48.832;9.126;2023-06-14T12:32:47;97843.91;;;28.63;nan
19108;BME280;9686;48.832;9.126;2023-06-14T12:35:13;97837.09;;;28.38;nan
19108;BME280;9686;48.832;9.126;2023-06-14T12:37:38;97826.22;;;27.64;nan
19108;BME280;9686;48.832;9.126;2023-06-14T12:40:04;97834.38;;;27.62;nan
19108;BME280;9686;48.832;9.126;2023-06-14T12:42:31;97825.84;;;27.69;nan
19108;BME280;9686;48.832;9.126;2023-06-14T12:44:56;97823.03;;;27.59;nan
19108;BME280;9686;48.832;9.126;2023-06-14T12:47:21;97830.81;;;27.73;nan
19108;BME280;9686;48.832;9.126;2023-06-14T12:49:47;97829.38;;;27.69;nan
19108;BME280;9686;48.832;9.126;2023-06-14T12:52:12;97827.50;;;27.58;nan
19108;BME280;9686;48.832;9.126;2023-06-14T12:54:37;97828.16;;;27.28;nan
19108;BME280;9686;48.832;9.126;2023-06-14T12:57:05;97826.97;;;27.32;nan
19108;BME280;9686;48.832;9.126;2023-06-14T12:59:30;97831.56;;;27.30;nan
19108;BME280;9686;48.832;9.126;2023-06-14T13:02:19;97838.03;;;27.17;nan
19108;BME280;9686;48.832;9.126;2023-06-14T13:04:44;97833.28;;;27.31;nan
19108;BME280;9686;48.832;9.126;2023-06-14T13:07:09;97831.69;;;27.29;nan
19108;BME280;9686;48.832;9.126;2023-06-14T13:09:36;97830.84;;;27.17;nan
19108;BME280;9686;48.832;9.126;2023-06-14T13:12:02;97825.13;;;27.22;nan
19108;BME280;9686;48.832;9.126;2023-06-14T13:14:27;97832.09;;;27.13;nan
19108;BME280;9686;48.832;9.126;2023-06-14T13:16:52;97832.19;;;27.23;nan
19108;BME280;9686;48.832;9.126;2023-06-14T13:19:18;97847.66;;;27.08;nan
19108;BME280;9686;48.832;9.126;2023-06-14T13:21:43;97835.59;;;27.14;nan
19108;BME280;9686;48.832;9.126;2023-06-14T13:24:08;97839.72;;;27.29;nan
19108;BME280;9686;48.832;9.126;2023-06-14T13:26:34;97837.72;;;27.87;nan
19108;BME280;9686;48.832;9.126;2023-06-14T13:28:59;97828.41;;;28.02;nan
19108;BME280;9686;48.832;9.126;2023-06-14T13:31:25;97837.75;;;28.08;nan
19108;BME280;9686;48.832;9.126;2023-06-14T13:33:50;97835.84;;;27.67;nan
19108;BME280;9686;48.832;9.126;2023-06-14T13:36:15;97831.31;;;27.45;nan
19108;BME280;9686;48.832;9.126;2023-06-14T13:38:41;97829.53;;;27.34;nan
19108;BME280;9686;48.832;9.126;2023-06-14T13:41:06;97830.84;;;27.40;nan
19108;BME280;9686;48.832;9.126;2023-06-14T13:43:31;97833.16;;;27.44;nan
19108;BME280;9686;48.832;9.126;2023-06-14T13:45:57;97821.25;;;27.15;nan